createdAt,value
2023-02-21T00:00:03.495Z,98751.80
2023-02-21T00:05:25.672Z,98764.60
2023-02-21T00:10:47.601Z,98759.60
2023-02-21T00:16:10.131Z,98752.20
2023-02-21T00:21:32.207Z,98757.80
2023-02-21T00:26:54.154Z,98758.80
2023-02-21T00:32:15.919Z,98751.60
2023-02-21T00:37:37.648Z,98760.00
2023-02-21T00:42:59.481Z,98756.60
2023-02-21T00:48:21.343Z,98754.80
2023-02-21T00:53:44.716Z,98757.80
2023-02-21T00:59:06.690Z,98768.20
2023-02-21T01:04:28.447Z,98760.40
2023-02-21T01:09:50.153Z,98760.40
2023-02-21T01:15:12.133Z,98763.80
2023-02-21T01:20:37.237Z,98745.20
2023-02-21T01:25:59.167Z,98742.60
2023-02-21T01:31:20.846Z,98742.40
2023-02-21T01:36:43.606Z,98751.60
2023-02-21T01:42:05.424Z,98746.40
2023-02-21T01:47:31.875Z,98746.60
2023-02-21T01:52:53.836Z,98747.40
2023-02-21T01:58:16.513Z,98760.40
2023-02-21T02:03:39.906Z,98751.60
2023-02-21T02:09:02.158Z,98744.40
2023-02-21T02:14:51.538Z,98742.20
2023-02-21T02:20:13.592Z,98742.20
2023-02-21T02:25:31.024Z,98735.20
2023-02-21T02:31:19.568Z,98732.60
2023-02-21T02:36:34.569Z,98722.60
2023-02-21T02:41:55.749Z,98711.80
2023-02-21T02:47:04.699Z,98727.00
2023-02-21T02:52:09.999Z,98722.00
2023-02-21T02:57:13.548Z,98725.80
2023-02-21T03:02:37.507Z,98731.20
2023-02-21T03:07:58.943Z,98723.80
2023-02-21T03:13:39.484Z,98728.80
2023-02-21T03:18:52.334Z,98734.40
2023-02-21T03:24:02.428Z,98725.20
2023-02-21T03:29:06.258Z,98732.40
2023-02-21T03:34:11.097Z,98734.00
2023-02-21T03:39:14.356Z,98756.00
2023-02-21T03:44:18.335Z,98747.40
2023-02-21T03:49:21.857Z,98764.40
2023-02-21T03:54:25.685Z,98761.40
2023-02-21T03:59:28.953Z,98773.60
2023-02-21T04:04:32.316Z,98788.00
2023-02-21T04:09:35.761Z,98777.80
2023-02-21T04:14:39.438Z,98778.60
2023-02-21T04:19:42.551Z,98775.40
2023-02-21T04:24:45.650Z,98771.00
2023-02-21T04:29:48.999Z,98771.40
2023-02-21T04:34:52.065Z,98762.60
2023-02-21T04:39:55.175Z,98769.00
2023-02-21T04:45:00.442Z,98779.00
2023-02-21T04:50:08.113Z,98781.20
2023-02-21T04:55:11.254Z,98781.00
2023-02-21T05:00:16.541Z,98775.80
2023-02-21T05:05:19.538Z,98779.60
2023-02-21T05:10:23.329Z,98784.20
2023-02-21T05:15:28.588Z,98785.60
2023-02-21T05:20:31.692Z,98773.60
2023-02-21T05:25:34.815Z,98768.40
2023-02-21T05:30:38.106Z,98763.60
2023-02-21T05:35:41.455Z,98770.80
2023-02-21T05:40:45.040Z,98779.60
2023-02-21T05:45:48.081Z,98796.00
2023-02-21T05:50:51.457Z,98798.80
2023-02-21T05:55:54.771Z,98807.00
2023-02-21T06:00:57.978Z,98806.40
2023-02-21T06:06:02.037Z,98814.40
2023-02-21T06:11:05.518Z,98835.20
2023-02-21T06:16:08.712Z,98840.40
2023-02-21T06:21:12.041Z,98852.60
2023-02-21T06:26:17.872Z,98872.00
2023-02-21T06:31:22.508Z,98875.40
2023-02-21T06:36:28.700Z,98875.20
2023-02-21T06:41:32.351Z,98882.00
2023-02-21T06:46:38.029Z,98892.40
2023-02-21T06:51:43.255Z,98904.40
2023-02-21T06:56:46.411Z,98903.60
2023-02-21T07:01:49.535Z,98919.60
2023-02-21T07:06:53.428Z,98930.60
2023-02-21T07:11:56.537Z,98947.40
2023-02-21T07:16:59.854Z,98953.80
2023-02-21T07:22:03.959Z,98961.80
2023-02-21T07:27:07.578Z,98971.00
2023-02-21T07:32:10.695Z,98970.40
2023-02-21T07:37:13.896Z,98979.00
2023-02-21T07:42:17.046Z,98988.20
2023-02-21T07:47:20.414Z,98990.00
2023-02-21T07:52:23.970Z,98999.40
2023-02-21T07:57:27.682Z,99005.40
2023-02-21T08:02:31.905Z,99019.20
2023-02-21T08:07:34.988Z,99029.20
2023-02-21T08:12:38.819Z,99034.80
2023-02-21T08:17:42.050Z,99048.00
2023-02-21T08:22:45.533Z,99052.40
2023-02-21T08:27:53.790Z,99058.40
2023-02-21T08:32:56.997Z,99068.20
2023-02-21T08:38:03.557Z,99070.80
2023-02-21T08:43:07.382Z,99084.40
2023-02-21T08:48:10.526Z,99085.20
2023-02-21T08:53:15.649Z,99095.60
2023-02-21T08:58:18.950Z,99103.20
2023-02-21T09:03:22.181Z,99114.00
2023-02-21T09:08:26.931Z,99125.00
2023-02-21T09:13:33.047Z,99137.60
2023-02-21T09:18:36.392Z,99133.60
2023-02-21T09:23:39.604Z,99146.60
2023-02-21T09:28:44.066Z,99155.40
2023-02-21T09:33:47.287Z,99158.20
2023-02-21T09:38:51.721Z,99162.80
2023-02-21T09:43:55.618Z,99166.40
2023-02-21T09:48:59.872Z,99178.80
2023-02-21T09:54:05.810Z,99185.60
2023-02-21T09:59:13.745Z,99200.40
2023-02-21T10:04:33.377Z,99204.00
2023-02-21T10:09:50.365Z,99215.00
2023-02-21T10:15:53.166Z,99222.20
2023-02-21T10:21:05.794Z,99230.00
2023-02-21T10:26:20.083Z,99235.20
2023-02-21T10:31:36.318Z,99237.80
2023-02-21T10:36:40.302Z,99242.60
2023-02-21T10:41:44.240Z,99243.00
2023-02-21T10:47:28.198Z,99253.20
2023-02-21T10:52:46.489Z,99253.20
2023-02-21T10:57:58.740Z,99265.60
2023-02-21T11:03:21.305Z,99269.20
2023-02-21T11:08:43.689Z,99283.60
2023-02-21T11:13:46.807Z,99288.40
2023-02-21T11:19:06.687Z,99292.60
2023-02-21T11:24:12.580Z,99293.40
2023-02-21T11:29:24.384Z,99311.40
2023-02-21T11:34:30.551Z,99325.60
2023-02-21T11:39:35.215Z,99331.00
2023-02-21T11:44:41.592Z,99333.00
2023-02-21T11:50:06.222Z,99332.40
2023-02-21T11:55:17.160Z,99336.20
2023-02-21T12:01:02.591Z,99345.00
2023-02-21T12:06:29.272Z,99348.80
2023-02-21T12:11:52.011Z,99353.40
2023-02-21T12:17:23.175Z,99358.40
2023-02-21T12:22:26.307Z,99362.60
2023-02-21T12:27:56.738Z,99362.00
2023-02-21T12:33:18.270Z,99366.80
2023-02-21T12:38:44.014Z,99379.80
2023-02-21T12:43:59.619Z,99381.00
2023-02-21T12:49:30.772Z,99385.40
2023-02-21T12:55:00.334Z,99383.40
2023-02-21T13:00:22.824Z,99392.20
2023-02-21T13:05:50.752Z,99401.20
2023-02-21T13:11:43.334Z,99401.00
2023-02-21T13:16:46.837Z,99404.40
2023-02-21T13:21:56.030Z,99409.80
2023-02-21T13:27:14.236Z,99416.40
2023-02-21T13:32:20.478Z,99423.00
2023-02-21T13:37:31.171Z,99432.40
2023-02-21T13:42:39.427Z,99438.60
2023-02-21T13:48:05.780Z,99438.60
2023-02-21T13:53:08.920Z,99457.40
2023-02-21T13:58:12.214Z,99463.60
2023-02-21T14:03:18.378Z,99471.20
2023-02-21T14:08:35.602Z,99478.80
2023-02-21T14:13:48.155Z,99485.20
2023-02-21T14:19:06.937Z,99493.60
2023-02-21T14:24:10.234Z,99499.40
2023-02-21T14:29:30.918Z,99504.00
2023-02-21T14:34:47.368Z,99510.80
2023-02-21T14:40:15.865Z,99511.40
2023-02-21T14:45:52.301Z,99522.00
2023-02-21T14:51:37.138Z,99526.40
2023-02-21T14:57:37.303Z,99536.80
2023-02-21T15:03:03.226Z,99542.00
2023-02-21T15:08:19.075Z,99544.80
2023-02-21T15:13:27.866Z,99550.20
2023-02-21T15:18:40.940Z,99554.40
2023-02-21T15:23:59.824Z,99557.20
2023-02-21T15:29:10.677Z,99565.80
2023-02-21T15:34:29.978Z,99569.00
2023-02-21T15:39:42.641Z,99581.00
2023-02-21T15:45:12.719Z,99590.60
2023-02-21T15:50:43.979Z,99600.80
2023-02-21T15:55:49.846Z,99609.00
2023-02-21T16:01:12.829Z,99619.40
2023-02-21T16:06:23.318Z,99634.80
2023-02-21T16:11:48.142Z,99649.80
2023-02-21T16:17:26.063Z,99649.60
2023-02-21T16:22:54.027Z,99666.00
2023-02-21T16:28:01.447Z,99679.40
2023-02-21T16:33:06.117Z,99685.40
2023-02-21T16:38:22.507Z,99687.20
2023-02-21T16:43:30.040Z,99701.60
2023-02-21T16:48:33.746Z,99716.20
2023-02-21T16:53:36.978Z,99721.20
2023-02-21T16:58:48.782Z,99734.80
2023-02-21T17:03:53.835Z,99730.20
2023-02-21T17:08:59.046Z,99743.60
2023-02-21T17:14:02.281Z,99755.80
2023-02-21T17:19:06.178Z,99752.20
2023-02-21T17:24:11.857Z,99766.00
2023-02-21T17:29:15.092Z,99777.40
2023-02-21T17:34:18.286Z,99772.60
2023-02-21T17:39:22.206Z,99789.20
2023-02-21T17:44:27.587Z,99800.40
2023-02-21T17:49:31.498Z,99806.80
2023-02-21T17:54:34.840Z,99814.00
2023-02-21T17:59:39.238Z,99815.60
2023-02-21T18:04:42.617Z,99825.60
2023-02-21T18:09:47.400Z,99839.20
2023-02-21T18:14:50.608Z,99842.20
2023-02-21T18:19:53.769Z,99843.40
2023-02-21T18:24:57.155Z,99856.20
2023-02-21T18:30:00.748Z,99859.80
2023-02-21T18:35:04.486Z,99866.00
2023-02-21T18:40:10.153Z,99867.40
2023-02-21T18:45:13.558Z,99883.60
2023-02-21T18:50:18.475Z,99899.20
2023-02-21T18:55:21.616Z,99904.80
2023-02-21T19:00:27.147Z,99897.80
2023-02-21T19:05:30.314Z,99901.80
2023-02-21T19:10:33.700Z,99917.80
2023-02-21T19:15:36.808Z,99919.40
2023-02-21T19:20:40.838Z,99931.00
2023-02-21T19:25:44.050Z,99931.60
2023-02-21T19:30:47.149Z,99937.00
2023-02-21T19:35:51.478Z,99938.00
2023-02-21T19:40:54.585Z,99956.40
2023-02-21T19:45:57.938Z,99961.20
2023-02-21T19:51:01.321Z,99969.40
2023-02-21T19:56:05.440Z,99989.60
2023-02-21T20:01:09.611Z,99993.80
2023-02-21T20:06:12.878Z,100002.00
2023-02-21T20:11:21.272Z,100003.20
2023-02-21T20:16:26.219Z,100009.40
2023-02-21T20:21:31.407Z,100008.00
2023-02-21T20:26:34.733Z,100016.40
2023-02-21T20:31:38.927Z,100026.20
2023-02-21T20:36:45.240Z,100033.80
2023-02-21T20:41:48.569Z,100040.40
2023-02-21T20:46:52.070Z,100040.60
2023-02-21T20:51:55.277Z,100043.40
2023-02-21T20:56:58.809Z,100044.20
2023-02-21T21:02:03.482Z,100049.60
2023-02-21T21:07:22.582Z,100054.20
2023-02-21T21:12:26.047Z,100065.20
2023-02-21T21:17:29.554Z,100079.40
2023-02-21T21:22:32.671Z,100088.00
2023-02-21T21:27:37.311Z,100097.40
2023-02-21T21:32:41.858Z,100103.40
2023-02-21T21:37:45.046Z,100109.20
2023-02-21T21:42:52.125Z,100115.80
2023-02-21T21:48:00.484Z,100112.80
2023-02-21T21:53:03.677Z,100118.20
2023-02-21T21:58:14.264Z,100132.40
2023-02-21T22:03:18.599Z,100141.60
2023-02-21T22:08:22.731Z,100150.40
2023-02-21T22:13:29.577Z,100161.00
2023-02-21T22:18:32.744Z,100176.20
2023-02-21T22:23:39.332Z,100189.20
2023-02-21T22:28:47.259Z,100196.40
2023-02-21T22:33:53.008Z,100199.80
2023-02-21T22:38:56.168Z,100199.00
2023-02-21T22:44:00.718Z,100204.40
2023-02-21T22:49:03.853Z,100212.80
2023-02-21T22:54:06.970Z,100216.00
2023-02-21T22:59:12.942Z,100221.60
2023-02-21T23:04:16.442Z,100221.80
2023-02-21T23:09:19.960Z,100224.60
2023-02-21T23:14:23.393Z,100232.60
2023-02-21T23:19:30.322Z,100239.40
2023-02-21T23:24:33.471Z,100246.00
2023-02-21T23:29:39.669Z,100254.80
2023-02-21T23:34:42.782Z,100261.40
2023-02-21T23:39:47.307Z,100266.40
2023-02-21T23:44:51.040Z,100273.20
2023-02-21T23:49:58.340Z,100279.60
2023-02-21T23:55:01.552Z,100292.40
